createdAt,value
2022-10-31T00:01:21.695Z,17.66
2022-10-31T00:06:26.089Z,17.66
2022-10-31T00:11:30.137Z,17.65
2022-10-31T00:16:33.980Z,17.64
2022-10-31T00:21:38.057Z,17.64
2022-10-31T00:26:42.187Z,17.64
2022-10-31T00:31:46.256Z,17.64
2022-10-31T00:36:50.858Z,17.63
2022-10-31T00:41:54.598Z,17.62
2022-10-31T00:46:58.811Z,17.62
2022-10-31T00:52:02.940Z,17.62
2022-10-31T00:57:06.969Z,17.62
2022-10-31T01:02:10.998Z,17.61
2022-10-31T01:07:15.157Z,17.61
2022-10-31T01:12:19.190Z,17.60
2022-10-31T01:17:23.277Z,17.59
2022-10-31T01:22:27.398Z,17.59
2022-10-31T01:27:32.307Z,17.59
2022-10-31T01:32:36.457Z,17.58
2022-10-31T01:37:40.617Z,17.58
2022-10-31T01:42:44.951Z,17.57
2022-10-31T01:47:50.197Z,17.56
2022-10-31T01:52:54.858Z,17.57
2022-10-31T01:57:59.922Z,17.56
2022-10-31T02:03:04.507Z,17.56
2022-10-31T02:08:10.072Z,17.55
2022-10-31T02:13:14.621Z,17.55
2022-10-31T02:18:19.062Z,17.55
2022-10-31T02:23:35.809Z,17.54
2022-10-31T02:28:48.378Z,17.54
2022-10-31T02:33:53.625Z,17.54
2022-10-31T02:39:04.268Z,17.53
2022-10-31T02:44:11.780Z,17.52
2022-10-31T02:49:20.117Z,17.52
2022-10-31T02:54:25.477Z,17.52
2022-10-31T02:59:31.457Z,17.51
2022-10-31T03:04:46.421Z,17.50
2022-10-31T03:09:56.712Z,17.51
2022-10-31T03:15:05.740Z,17.50
2022-10-31T03:20:10.698Z,17.50
2022-10-31T03:25:15.973Z,17.49
2022-10-31T03:30:20.579Z,17.48
2022-10-31T03:35:25.837Z,17.47
2022-10-31T03:40:31.918Z,17.46
2022-10-31T03:45:39.167Z,17.46
2022-10-31T03:50:48.059Z,17.45
2022-10-31T03:55:53.882Z,17.45
2022-10-31T04:00:59.260Z,17.44
2022-10-31T04:06:04.827Z,17.44
2022-10-31T04:11:10.016Z,17.43
2022-10-31T04:16:17.148Z,17.43
2022-10-31T04:21:21.748Z,17.42
2022-10-31T04:26:25.979Z,17.42
2022-10-31T04:31:30.630Z,17.41
2022-10-31T04:36:34.684Z,17.40
2022-10-31T04:41:38.667Z,17.40
2022-10-31T04:46:42.477Z,17.40
2022-10-31T04:51:46.552Z,17.38
2022-10-31T04:56:50.957Z,17.37
2022-10-31T05:01:55.458Z,17.37
2022-10-31T05:06:59.827Z,17.37
2022-10-31T05:12:03.782Z,17.36
2022-10-31T05:17:08.197Z,17.36
2022-10-31T05:22:12.779Z,17.35
2022-10-31T05:27:16.877Z,17.35
2022-10-31T05:32:21.121Z,17.34
2022-10-31T05:37:24.819Z,17.34
2022-10-31T05:42:28.937Z,17.34
2022-10-31T05:47:32.969Z,17.33
2022-10-31T05:52:36.993Z,17.33
2022-10-31T05:57:41.431Z,17.32
2022-10-31T06:02:45.507Z,17.32
2022-10-31T06:07:49.687Z,17.33
2022-10-31T06:12:54.237Z,17.32
2022-10-31T06:18:05.204Z,17.33
2022-10-31T06:23:09.563Z,17.32
2022-10-31T06:28:13.788Z,17.32
2022-10-31T06:33:18.381Z,17.32
2022-10-31T06:38:22.657Z,17.33
2022-10-31T06:43:26.678Z,17.33
2022-10-31T06:48:30.607Z,17.32
2022-10-31T06:53:35.155Z,17.32
2022-10-31T06:58:39.641Z,17.32
2022-10-31T07:03:44.050Z,17.33
2022-10-31T07:08:48.057Z,17.34
2022-10-31T07:13:52.396Z,17.36
2022-10-31T07:18:56.520Z,17.37
2022-10-31T07:24:00.781Z,17.38
2022-10-31T07:29:04.986Z,17.41
2022-10-31T07:34:09.114Z,17.41
2022-10-31T07:39:13.237Z,17.41
2022-10-31T07:44:17.267Z,17.41
2022-10-31T07:49:21.742Z,17.40
2022-10-31T07:54:25.997Z,17.40
2022-10-31T07:59:30.188Z,17.40
2022-10-31T08:04:34.387Z,17.40
2022-10-31T08:09:38.768Z,17.39
2022-10-31T08:14:42.797Z,17.40
2022-10-31T08:19:47.089Z,17.40
2022-10-31T08:24:51.018Z,17.42
2022-10-31T08:29:55.149Z,17.44
2022-10-31T08:34:59.689Z,17.49
2022-10-31T08:40:03.909Z,17.51
2022-10-31T08:45:08.808Z,17.51
2022-10-31T08:50:12.988Z,17.52
2022-10-31T08:55:17.839Z,17.54
2022-10-31T09:00:22.207Z,17.55
2022-10-31T09:05:26.567Z,17.56
2022-10-31T09:10:31.052Z,17.56
2022-10-31T09:15:35.972Z,17.58
2022-10-31T09:20:41.289Z,17.61
2022-10-31T09:25:50.205Z,17.67
2022-10-31T09:30:55.496Z,17.70
2022-10-31T09:36:00.300Z,17.75
2022-10-31T09:41:07.191Z,17.74
2022-10-31T09:46:14.231Z,17.73
2022-10-31T09:51:19.467Z,17.73
2022-10-31T09:56:24.831Z,17.75
2022-10-31T10:01:37.123Z,17.80
2022-10-31T10:06:46.382Z,17.82
2022-10-31T10:11:54.792Z,17.84
2022-10-31T10:17:05.899Z,17.84
2022-10-31T10:22:13.881Z,17.86
2022-10-31T10:27:23.580Z,17.82
2022-10-31T10:32:29.177Z,17.81
2022-10-31T10:37:35.928Z,17.80
2022-10-31T10:43:00.552Z,17.77
2022-10-31T10:48:13.589Z,17.76
2022-10-31T10:53:38.094Z,17.75
2022-10-31T10:58:43.436Z,17.74
2022-10-31T11:03:47.597Z,17.72
2022-10-31T11:08:51.707Z,17.71
2022-10-31T11:13:58.297Z,17.70
2022-10-31T11:19:15.549Z,17.68
2022-10-31T11:24:20.407Z,17.68
2022-10-31T11:29:25.657Z,17.68
2022-10-31T11:34:32.387Z,17.67
2022-10-31T11:39:43.211Z,17.66
2022-10-31T11:44:47.747Z,17.66
2022-10-31T11:49:52.677Z,17.66
2022-10-31T11:54:57.057Z,17.63
2022-10-31T12:00:03.997Z,17.63
2022-10-31T12:05:09.618Z,17.62
2022-10-31T12:10:14.443Z,17.62
2022-10-31T12:15:32.601Z,17.60
2022-10-31T12:20:41.922Z,17.61
2022-10-31T12:25:50.687Z,17.60
2022-10-31T12:30:58.377Z,17.58
2022-10-31T12:36:12.632Z,17.58
2022-10-31T12:41:24.325Z,17.58
2022-10-31T12:46:34.781Z,17.57
2022-10-31T12:51:43.741Z,17.57
2022-10-31T12:56:53.057Z,17.56
2022-10-31T13:02:00.666Z,17.56
2022-10-31T13:07:08.548Z,17.55
2022-10-31T13:12:13.979Z,17.55
2022-10-31T13:17:23.688Z,17.53
2022-10-31T13:22:31.407Z,17.53
2022-10-31T13:27:43.859Z,17.52
2022-10-31T13:32:49.777Z,17.53
2022-10-31T13:37:59.168Z,17.52
2022-10-31T13:43:06.817Z,17.50
2022-10-31T13:48:21.780Z,17.51
2022-10-31T13:53:37.421Z,17.51
2022-10-31T13:58:44.278Z,17.50
2022-10-31T14:04:06.104Z,17.50
2022-10-31T14:09:24.070Z,17.50
2022-10-31T14:14:31.441Z,17.50
2022-10-31T14:19:35.887Z,17.49
2022-10-31T14:24:40.416Z,17.48
2022-10-31T14:29:49.447Z,17.47
2022-10-31T14:34:55.848Z,17.47
2022-10-31T14:40:16.777Z,17.46
2022-10-31T14:45:27.447Z,17.47
2022-10-31T14:50:42.948Z,17.46
2022-10-31T14:55:49.666Z,17.46
2022-10-31T15:00:58.494Z,17.44
2022-10-31T15:06:05.937Z,17.43
2022-10-31T15:11:14.039Z,17.42
2022-10-31T15:16:19.897Z,17.41
2022-10-31T15:21:24.757Z,17.41
2022-10-31T15:26:30.318Z,17.39
2022-10-31T15:31:34.733Z,17.39
2022-10-31T15:36:38.978Z,17.38
2022-10-31T15:41:53.975Z,17.37
2022-10-31T15:46:59.562Z,17.38
2022-10-31T15:52:14.504Z,17.37
2022-10-31T15:57:19.429Z,17.36
2022-10-31T16:02:27.053Z,17.36
2022-10-31T16:07:31.952Z,17.35
2022-10-31T16:12:37.796Z,17.35
2022-10-31T16:17:42.457Z,17.35
2022-10-31T16:22:49.708Z,17.34
2022-10-31T16:27:54.821Z,17.34
2022-10-31T16:33:00.021Z,17.33
2022-10-31T16:38:04.628Z,17.33
2022-10-31T16:43:12.477Z,17.32
2022-10-31T16:48:17.608Z,17.32
2022-10-31T16:53:21.678Z,17.32
2022-10-31T16:58:26.298Z,17.31
2022-10-31T17:03:30.981Z,17.32
2022-10-31T17:08:35.290Z,17.31
2022-10-31T17:13:39.808Z,17.30
2022-10-31T17:18:45.827Z,17.30
2022-10-31T17:23:50.123Z,17.30
2022-10-31T17:28:54.085Z,17.29
2022-10-31T17:34:02.016Z,17.29
2022-10-31T17:39:09.475Z,17.28
2022-10-31T17:44:14.019Z,17.28
2022-10-31T17:49:18.543Z,17.28
2022-10-31T17:54:23.332Z,17.27
2022-10-31T17:59:30.120Z,17.27
2022-10-31T18:04:34.562Z,17.27
2022-10-31T18:09:38.984Z,17.26
2022-10-31T18:14:48.159Z,17.26
2022-10-31T18:19:52.849Z,17.26
2022-10-31T18:25:01.622Z,17.26
2022-10-31T18:30:07.097Z,17.25
2022-10-31T18:35:11.207Z,17.25
2022-10-31T18:40:15.238Z,17.24
2022-10-31T18:45:32.592Z,17.24
2022-10-31T18:50:43.399Z,17.26
2022-10-31T18:55:50.247Z,17.25
2022-10-31T19:00:55.158Z,17.23
2022-10-31T19:05:59.431Z,17.23
2022-10-31T19:11:07.477Z,17.22
2022-10-31T19:16:13.699Z,17.22
2022-10-31T19:21:18.613Z,17.22
2022-10-31T19:26:22.699Z,17.21
2022-10-31T19:31:26.920Z,17.21
2022-10-31T19:36:31.199Z,17.20
2022-10-31T19:41:35.368Z,17.20
2022-10-31T19:46:59.751Z,17.20
2022-10-31T19:52:04.627Z,17.22
2022-10-31T19:57:08.859Z,17.20
2022-10-31T20:02:19.856Z,17.18
2022-10-31T20:07:24.601Z,17.18
2022-10-31T20:12:28.921Z,17.17
2022-10-31T20:17:33.049Z,17.18
2022-10-31T20:22:37.488Z,17.17
2022-10-31T20:27:41.917Z,17.16
2022-10-31T20:32:50.000Z,17.16
2022-10-31T20:37:54.297Z,17.16
2022-10-31T20:42:58.448Z,17.15
2022-10-31T20:48:03.223Z,17.15
2022-10-31T20:53:07.511Z,17.15
2022-10-31T20:58:12.277Z,17.14
2022-10-31T21:03:16.597Z,17.13
2022-10-31T21:08:20.698Z,17.14
2022-10-31T21:13:25.017Z,17.13
2022-10-31T21:18:29.157Z,17.14
2022-10-31T21:23:33.417Z,17.13
2022-10-31T21:28:37.751Z,17.12
2022-10-31T21:33:42.311Z,17.12
2022-10-31T21:38:49.427Z,17.12
2022-10-31T21:43:54.433Z,17.12
2022-10-31T21:48:58.839Z,17.10
2022-10-31T21:54:26.332Z,17.11
2022-10-31T21:59:30.948Z,17.11
2022-10-31T22:04:34.917Z,17.11
2022-10-31T22:09:41.018Z,17.10
2022-10-31T22:14:44.919Z,17.09
2022-10-31T22:19:49.122Z,17.09
2022-10-31T22:24:53.478Z,17.08
2022-10-31T22:29:58.482Z,17.08
2022-10-31T22:35:02.737Z,17.08
2022-10-31T22:40:08.179Z,17.08
2022-10-31T22:45:12.617Z,17.08
2022-10-31T22:50:16.829Z,17.07
2022-10-31T22:55:20.837Z,17.07
2022-10-31T23:00:24.903Z,17.06
2022-10-31T23:05:28.747Z,17.06
2022-10-31T23:10:34.206Z,17.05
2022-10-31T23:15:38.437Z,17.06
2022-10-31T23:20:42.800Z,17.06
2022-10-31T23:26:05.228Z,17.03
2022-10-31T23:31:09.691Z,17.04
2022-10-31T23:36:13.518Z,17.04
2022-10-31T23:41:17.828Z,17.03
2022-10-31T23:46:22.406Z,17.03
2022-10-31T23:51:26.506Z,17.03
2022-10-31T23:56:30.928Z,17.03
